Time;durP1;ratioP1;P1;durP2;ratioP2;P2;SDS_P1;SDS_P2;PMS_P1;PMS_P2;Temp;Humidity;BMP_temperature;BMP_pressure;BME280_temperature;BME280_humidity;BME280_pressure;Samples;Min_cycle;Max_cycle;Signal;HPM_P1;HPM_P2
2023/07/09 00:01:47;;;;;;;;;;;22.00;67.70;;;;;;5007030;28;92222;-44
2023/07/09 00:04:12;;;;;;;;;;;22.00;67.70;;;;;;5010211;28;92398;-45
2023/07/09 00:06:39;;;;;;;;;;;22.00;67.60;;;;;;5007415;28;93037;-45
2023/07/09 00:09:05;;;;;;;;;;;21.90;67.70;;;;;;5010638;28;92305;-47
2023/07/09 00:11:31;;;;;;;;;;;21.90;67.70;;;;;;5008851;28;92265;-48
2023/07/09 00:13:56;;;;;;;;;;;21.90;67.70;;;;;;5009006;28;92268;-44
2023/07/09 00:16:24;;;;;;;;;;;21.90;67.70;;;;;;5006088;28;92283;-47
2023/07/09 00:18:50;;;;;;;;;;;21.90;67.70;;;;;;4998972;28;93753;-47
2023/07/09 00:21:16;;;;;;;;;;;21.90;67.50;;;;;;5010671;28;94669;-46
2023/07/09 00:23:41;;;;;;;;;;;21.90;67.60;;;;;;5008775;28;93570;-47
2023/07/09 00:26:09;;;;;;;;;;;21.90;67.60;;;;;;5009917;28;93050;-45
2023/07/09 00:28:35;;;;;;;;;;;21.80;67.50;;;;;;5003716;28;92176;-43
2023/07/09 00:31:00;;;;;;;;;;;21.80;67.50;;;;;;5009151;28;92341;-43
2023/07/09 00:33:31;;;;;;;;;;;21.90;67.60;;;;;;5008102;28;93167;-44
2023/07/09 00:35:57;;;;;;;;;;;21.80;67.60;;;;;;5007187;28;92565;-43
2023/07/09 00:38:23;;;;;;;;;;;21.80;67.50;;;;;;5010509;28;93122;-43
2023/07/09 00:41:09;;;;;;;;;;;21.80;67.60;;;;;;5007501;28;93077;-42
2023/07/09 00:43:35;;;;;;;;;;;21.80;67.50;;;;;;5006342;28;94775;-43
2023/07/09 00:46:36;;;;;;;;;;;21.80;67.60;;;;;;5004898;28;94074;-44
2023/07/09 00:49:05;;;;;;;;;;;21.70;67.50;;;;;;4986980;28;92700;-44
2023/07/09 00:51:33;;;;;;;;;;;21.80;67.60;;;;;;5003558;28;92344;-43
2023/07/09 00:54:00;;;;;;;;;;;21.70;67.60;;;;;;5006514;28;93042;-43
2023/07/09 00:56:31;;;;;;;;;;;21.70;67.60;;;;;;5009137;28;92219;-43
2023/07/09 00:59:00;;;;;;;;;;;21.70;67.50;;;;;;5007607;28;92331;-43
2023/07/09 01:01:25;;;;;;;;;;;21.60;67.50;;;;;;5005403;28;92176;-43
2023/07/09 01:03:53;;;;;;;;;;;21.70;67.50;;;;;;5007914;28;91468;-44
2023/07/09 01:06:23;;;;;;;;;;;21.70;67.40;;;;;;5007961;28;94760;-44
2023/07/09 01:08:53;;;;;;;;;;;21.70;67.50;;;;;;5008299;28;92514;-44
2023/07/09 01:11:23;;;;;;;;;;;21.70;67.50;;;;;;5005811;28;94298;-43
2023/07/09 01:13:54;;;;;;;;;;;21.60;67.40;;;;;;5007663;28;92914;-43
2023/07/09 01:16:23;;;;;;;;;;;21.60;67.40;;;;;;5006189;28;92110;-45
2023/07/09 01:18:52;;;;;;;;;;;21.60;67.50;;;;;;5001436;28;92559;-42
2023/07/09 01:21:17;;;;;;;;;;;21.60;67.40;;;;;;5007003;28;93158;-43
2023/07/09 01:23:44;;;;;;;;;;;21.60;67.50;;;;;;5007468;28;92087;-43
2023/07/09 01:26:14;;;;;;;;;;;21.50;67.40;;;;;;5012183;28;93225;-44
2023/07/09 01:28:43;;;;;;;;;;;21.50;67.50;;;;;;5007868;28;91959;-45
2023/07/09 01:31:09;;;;;;;;;;;21.50;67.50;;;;;;5005805;28;93231;-44
2023/07/09 01:33:36;;;;;;;;;;;21.50;67.50;;;;;;5005800;28;92977;-43
2023/07/09 01:36:01;;;;;;;;;;;21.50;67.50;;;;;;5006298;28;93177;-43
2023/07/09 01:38:30;;;;;;;;;;;21.50;67.40;;;;;;5008930;28;93322;-42
2023/07/09 01:40:56;;;;;;;;;;;21.40;67.40;;;;;;5007080;28;93687;-43
2023/07/09 01:43:22;;;;;;;;;;;21.40;67.50;;;;;;5009718;28;92172;-45
2023/07/09 01:45:50;;;;;;;;;;;21.40;67.40;;;;;;5005670;28;93068;-44
2023/07/09 01:48:16;;;;;;;;;;;21.40;67.30;;;;;;5007764;28;94636;-43
2023/07/09 01:50:43;;;;;;;;;;;21.40;67.40;;;;;;5005882;28;92382;-43
2023/07/09 01:53:10;;;;;;;;;;;21.40;67.40;;;;;;5006235;28;93551;-44
2023/07/09 01:55:36;;;;;;;;;;;21.30;67.30;;;;;;5008636;28;92170;-43
2023/07/09 01:58:06;;;;;;;;;;;21.40;67.40;;;;;;5007942;28;92575;-43
2023/07/09 02:00:32;;;;;;;;;;;21.30;67.40;;;;;;5005442;28;96690;-43
2023/07/09 02:03:00;;;;;;;;;;;21.30;67.40;;;;;;5007148;28;92683;-45
2023/07/09 02:05:26;;;;;;;;;;;21.30;67.50;;;;;;5006897;28;93875;-45
2023/07/09 02:07:52;;;;;;;;;;;21.30;67.30;;;;;;5007588;28;94396;-42
2023/07/09 02:10:18;;;;;;;;;;;21.30;67.40;;;;;;5009462;28;92429;-43
2023/07/09 02:12:44;;;;;;;;;;;21.20;67.40;;;;;;5008747;28;93193;-44
2023/07/09 02:15:09;;;;;;;;;;;21.20;67.30;;;;;;5007246;28;92178;-43
2023/07/09 02:17:35;;;;;;;;;;;21.20;67.40;;;;;;5006082;28;92330;-43
2023/07/09 02:20:01;;;;;;;;;;;21.20;67.30;;;;;;5006671;28;93450;-43
2023/07/09 02:22:26;;;;;;;;;;;21.20;67.40;;;;;;5006139;28;92265;-43
2023/07/09 02:24:55;;;;;;;;;;;21.20;67.50;;;;;;5008329;28;93342;-44
2023/07/09 02:27:21;;;;;;;;;;;21.20;67.50;;;;;;5008631;28;94598;-44
2023/07/09 02:29:47;;;;;;;;;;;21.10;67.30;;;;;;5010063;28;92230;-43
2023/07/09 02:32:23;;;;;;;;;;;21.10;67.40;;;;;;5012825;28;92453;-46
2023/07/09 02:34:49;;;;;;;;;;;21.10;67.40;;;;;;5010460;28;92147;-43
2023/07/09 02:37:15;;;;;;;;;;;21.10;67.40;;;;;;5011979;28;92086;-44
2023/07/09 02:39:40;;;;;;;;;;;21.00;67.50;;;;;;5008487;28;94341;-44
2023/07/09 02:42:08;;;;;;;;;;;21.10;67.50;;;;;;5012091;28;91421;-43
2023/07/09 02:44:34;;;;;;;;;;;21.00;67.40;;;;;;5011238;28;92213;-44
2023/07/09 02:47:00;;;;;;;;;;;21.00;67.50;;;;;;5008260;28;92699;-43
2023/07/09 02:49:25;;;;;;;;;;;21.00;67.40;;;;;;5008632;28;93136;-43
2023/07/09 02:51:51;;;;;;;;;;;21.00;67.50;;;;;;5013960;28;94439;-44
2023/07/09 02:54:16;;;;;;;;;;;21.00;67.40;;;;;;5010386;28;92170;-43
2023/07/09 02:56:42;;;;;;;;;;;21.00;67.40;;;;;;5009990;28;93562;-44
2023/07/09 02:59:07;;;;;;;;;;;21.00;67.40;;;;;;5011378;28;93369;-42
2023/07/09 03:01:34;;;;;;;;;;;21.00;67.40;;;;;;5008370;28;92214;-42
2023/07/09 03:04:01;;;;;;;;;;;21.00;67.40;;;;;;5010949;28;94241;-44
2023/07/09 03:06:27;;;;;;;;;;;20.90;67.40;;;;;;5004683;28;92367;-44
2023/07/09 03:08:53;;;;;;;;;;;20.90;67.30;;;;;;5011881;28;92168;-43
2023/07/09 03:11:19;;;;;;;;;;;20.90;67.40;;;;;;5008540;28;92556;-43
2023/07/09 03:13:45;;;;;;;;;;;20.90;67.40;;;;;;5011434;28;94036;-42
2023/07/09 03:16:11;;;;;;;;;;;20.80;67.30;;;;;;5009668;28;93394;-43
2023/07/09 03:18:37;;;;;;;;;;;20.80;67.30;;;;;;5000856;28;93063;-43
2023/07/09 03:21:02;;;;;;;;;;;20.80;67.30;;;;;;5005998;28;92332;-43
2023/07/09 03:23:28;;;;;;;;;;;20.80;67.30;;;;;;5009057;28;93943;-42
2023/07/09 03:25:54;;;;;;;;;;;20.80;67.40;;;;;;5010190;28;92985;-43
2023/07/09 03:28:20;;;;;;;;;;;20.80;67.30;;;;;;4997841;28;92143;-43
2023/07/09 03:30:46;;;;;;;;;;;20.80;67.40;;;;;;5003101;28;93881;-44
2023/07/09 03:33:13;;;;;;;;;;;20.80;67.30;;;;;;5010173;28;93048;-44
2023/07/09 03:35:39;;;;;;;;;;;20.70;67.30;;;;;;5010770;28;93014;-42
2023/07/09 03:38:06;;;;;;;;;;;20.80;67.30;;;;;;5002632;28;94103;-43
2023/07/09 03:40:32;;;;;;;;;;;20.70;67.20;;;;;;4998758;28;92852;-43
2023/07/09 03:42:57;;;;;;;;;;;20.70;67.30;;;;;;5005060;28;92734;-44
2023/07/09 03:45:23;;;;;;;;;;;20.70;67.30;;;;;;5007735;28;93557;-43
2023/07/09 03:47:48;;;;;;;;;;;20.70;67.30;;;;;;4993951;28;92396;-45
2023/07/09 03:50:14;;;;;;;;;;;20.70;67.20;;;;;;5002501;28;92760;-44
2023/07/09 03:52:40;;;;;;;;;;;20.70;67.30;;;;;;5010802;28;92888;-43
2023/07/09 03:55:06;;;;;;;;;;;20.60;67.30;;;;;;5003331;28;92789;-42
2023/07/09 03:57:32;;;;;;;;;;;20.60;67.30;;;;;;4999790;28;93666;-43
2023/07/09 03:59:58;;;;;;;;;;;20.60;67.40;;;;;;5005765;28;92453;-46
2023/07/09 04:02:23;;;;;;;;;;;20.60;67.20;;;;;;5002501;28;92971;-46
2023/07/09 04:04:49;;;;;;;;;;;20.60;67.30;;;;;;5001420;28;93938;-43
2023/07/09 04:07:15;;;;;;;;;;;20.60;67.40;;;;;;4996590;28;92445;-46
2023/07/09 04:09:40;;;;;;;;;;;20.60;67.30;;;;;;5009815;28;92775;-44
2023/07/09 04:12:06;;;;;;;;;;;20.50;67.20;;;;;;5008588;28;94517;-43
2023/07/09 04:14:31;;;;;;;;;;;20.60;67.30;;;;;;5001562;28;92947;-44
2023/07/09 04:16:57;;;;;;;;;;;20.50;67.30;;;;;;4993502;28;93655;-46
2023/07/09 04:19:23;;;;;;;;;;;20.50;67.20;;;;;;5011418;28;93898;-46
2023/07/09 04:21:49;;;;;;;;;;;20.50;67.80;;;;;;5007738;28;92652;-43
2023/07/09 04:24:16;;;;;;;;;;;20.50;67.20;;;;;;5001148;28;92195;-43
2023/07/09 04:26:41;;;;;;;;;;;20.50;67.20;;;;;;5003503;28;94900;-44
2023/07/09 04:29:07;;;;;;;;;;;20.50;67.20;;;;;;5009586;28;93456;-47
2023/07/09 04:31:32;;;;;;;;;;;20.50;67.20;;;;;;5007042;28;92620;-47
2023/07/09 04:33:58;;;;;;;;;;;20.50;67.20;;;;;;4999653;28;93041;-48
2023/07/09 04:36:23;;;;;;;;;;;20.40;67.20;;;;;;4998238;28;92868;-48
2023/07/09 04:38:49;;;;;;;;;;;20.50;67.10;;;;;;5009545;28;93105;-42
2023/07/09 04:41:14;;;;;;;;;;;20.50;67.20;;;;;;5010350;28;92208;-43
2023/07/09 04:43:40;;;;;;;;;;;20.40;67.10;;;;;;4999402;28;93279;-43
2023/07/09 04:46:05;;;;;;;;;;;20.40;67.10;;;;;;5005868;28;92158;-43
2023/07/09 04:48:32;;;;;;;;;;;20.40;67.20;;;;;;5007222;28;92169;-43
2023/07/09 04:50:59;;;;;;;;;;;20.40;67.20;;;;;;5002659;28;94202;-44
2023/07/09 04:53:25;;;;;;;;;;;20.40;67.20;;;;;;4997100;28;92234;-43
2023/07/09 04:55:51;;;;;;;;;;;20.40;67.00;;;;;;5003729;28;92393;-43
2023/07/09 04:58:16;;;;;;;;;;;20.40;67.00;;;;;;5002929;28;93040;-42
2023/07/09 05:00:42;;;;;;;;;;;20.40;67.10;;;;;;5002258;28;92134;-42
2023/07/09 05:03:08;;;;;;;;;;;20.40;67.00;;;;;;4998530;28;94358;-43
2023/07/09 05:05:34;;;;;;;;;;;20.40;67.10;;;;;;5005214;28;92303;-43
2023/07/09 05:07:59;;;;;;;;;;;20.40;67.10;;;;;;5006665;28;93898;-43
2023/07/09 05:10:25;;;;;;;;;;;20.40;67.20;;;;;;5001062;28;93047;-42
2023/07/09 05:12:51;;;;;;;;;;;20.40;67.20;;;;;;5002949;28;93111;-43
2023/07/09 05:15:18;;;;;;;;;;;20.40;67.20;;;;;;5005501;28;93522;-43
2023/07/09 05:17:44;;;;;;;;;;;20.40;67.30;;;;;;5006154;28;93014;-42
2023/07/09 05:20:10;;;;;;;;;;;20.40;67.30;;;;;;5005624;28;92395;-43
2023/07/09 05:22:35;;;;;;;;;;;20.40;67.30;;;;;;5001230;28;92593;-43
2023/07/09 05:25:01;;;;;;;;;;;20.40;67.30;;;;;;5009115;28;92438;-42
2023/07/09 05:27:26;;;;;;;;;;;20.40;67.30;;;;;;5007181;28;92562;-42
2023/07/09 05:29:52;;;;;;;;;;;20.40;67.30;;;;;;4995620;28;93966;-43
2023/07/09 05:32:18;;;;;;;;;;;20.40;67.40;;;;;;4994124;28;92902;-44
2023/07/09 05:34:43;;;;;;;;;;;20.40;67.40;;;;;;5005339;28;92141;-42
2023/07/09 05:37:09;;;;;;;;;;;20.40;67.40;;;;;;5006620;28;93089;-45
2023/07/09 05:39:34;;;;;;;;;;;20.40;67.50;;;;;;5004194;28;93889;-43
2023/07/09 05:42:00;;;;;;;;;;;20.40;67.40;;;;;;4998711;28;93528;-43
2023/07/09 05:44:25;;;;;;;;;;;20.40;67.40;;;;;;5011400;28;92991;-42
2023/07/09 05:46:50;;;;;;;;;;;20.40;67.50;;;;;;5006186;28;92486;-42
2023/07/09 05:49:16;;;;;;;;;;;20.40;67.50;;;;;;4998326;28;93574;-42
2023/07/09 05:51:42;;;;;;;;;;;20.40;67.50;;;;;;5001325;28;92338;-43
2023/07/09 05:54:07;;;;;;;;;;;20.40;67.60;;;;;;5006853;28;94339;-43
2023/07/09 05:56:33;;;;;;;;;;;20.40;67.50;;;;;;5005193;28;92366;-42
2023/07/09 05:58:58;;;;;;;;;;;20.40;67.60;;;;;;4997750;28;92226;-43
2023/07/09 06:01:24;;;;;;;;;;;20.40;67.60;;;;;;5005903;28;92446;-43
2023/07/09 06:03:50;;;;;;;;;;;20.40;67.60;;;;;;5003477;28;94013;-42
2023/07/09 06:06:16;;;;;;;;;;;20.40;67.70;;;;;;5010723;28;94008;-43
2023/07/09 06:08:41;;;;;;;;;;;20.40;67.60;;;;;;5003324;28;93703;-42
2023/07/09 06:11:07;;;;;;;;;;;20.40;67.60;;;;;;5007731;28;92148;-43
2023/07/09 06:13:32;;;;;;;;;;;20.40;67.70;;;;;;5009668;28;93053;-43
2023/07/09 06:15:59;;;;;;;;;;;20.40;67.80;;;;;;5007265;28;94622;-42
2023/07/09 06:18:24;;;;;;;;;;;20.40;67.80;;;;;;5004217;28;93290;-42
2023/07/09 06:20:51;;;;;;;;;;;20.40;67.80;;;;;;5009166;28;93524;-42
2023/07/09 06:23:16;;;;;;;;;;;20.40;67.80;;;;;;5012409;28;93070;-43
2023/07/09 06:25:43;;;;;;;;;;;20.40;67.80;;;;;;4997754;28;92142;-44
2023/07/09 06:28:09;;;;;;;;;;;20.40;67.80;;;;;;5002451;28;93675;-42
2023/07/09 06:30:35;;;;;;;;;;;20.40;67.90;;;;;;5011466;28;92778;-46
2023/07/09 06:33:01;;;;;;;;;;;20.40;68.00;;;;;;5009703;28;92566;-42
2023/07/09 06:35:26;;;;;;;;;;;20.40;68.00;;;;;;4995530;28;92629;-43
2023/07/09 06:37:51;;;;;;;;;;;20.40;68.00;;;;;;4995575;28;92230;-43
2023/07/09 06:40:17;;;;;;;;;;;20.40;68.00;;;;;;5010653;28;92589;-43
2023/07/09 06:42:43;;;;;;;;;;;20.40;68.10;;;;;;5011105;28;93536;-43
2023/07/09 06:45:08;;;;;;;;;;;20.40;68.10;;;;;;4999632;28;91416;-43
2023/07/09 06:47:34;;;;;;;;;;;20.40;68.10;;;;;;5001076;28;93186;-43
2023/07/09 06:49:59;;;;;;;;;;;20.40;68.10;;;;;;5013128;28;93362;-43
2023/07/09 06:52:25;;;;;;;;;;;20.40;68.10;;;;;;5009682;28;93127;-42
2023/07/09 06:54:50;;;;;;;;;;;20.40;68.10;;;;;;4993050;28;92992;-44
2023/07/09 06:57:16;;;;;;;;;;;20.40;68.00;;;;;;5002079;28;92713;-42
2023/07/09 06:59:41;;;;;;;;;;;20.40;68.10;;;;;;5011513;28;92456;-44
2023/07/09 07:02:07;;;;;;;;;;;20.40;68.00;;;;;;5006677;28;93311;-42
2023/07/09 07:04:33;;;;;;;;;;;20.40;68.70;;;;;;4993524;28;93341;-44
2023/07/09 07:06:58;;;;;;;;;;;20.40;68.00;;;;;;5006638;28;92729;-43
2023/07/09 07:09:24;;;;;;;;;;;20.40;68.10;;;;;;5012109;28;92660;-43
2023/07/09 07:11:50;;;;;;;;;;;20.40;68.20;;;;;;5001672;28;92953;-43
2023/07/09 07:14:15;;;;;;;;;;;20.50;68.10;;;;;;5000576;28;93226;-42
2023/07/09 07:16:41;;;;;;;;;;;20.40;68.10;;;;;;5006915;28;93470;-42
2023/07/09 07:19:07;;;;;;;;;;;20.40;68.10;;;;;;5010802;28;93393;-43
2023/07/09 07:21:32;;;;;;;;;;;20.40;68.10;;;;;;4997019;28;94690;-42
2023/07/09 07:23:58;;;;;;;;;;;20.40;68.20;;;;;;5003923;28;92359;-43
2023/07/09 07:26:23;;;;;;;;;;;20.40;68.20;;;;;;5004857;28;92462;-43
2023/07/09 07:28:50;;;;;;;;;;;20.40;68.30;;;;;;5008184;28;93118;-44
2023/07/09 07:31:16;;;;;;;;;;;20.40;68.20;;;;;;5010766;28;92294;-43
2023/07/09 07:33:42;;;;;;;;;;;20.40;68.20;;;;;;5001663;28;94281;-42
2023/07/09 07:36:08;;;;;;;;;;;20.50;68.20;;;;;;5007439;28;92210;-42
2023/07/09 07:38:33;;;;;;;;;;;20.40;68.20;;;;;;5011015;28;92554;-42
2023/07/09 07:41:00;;;;;;;;;;;20.40;68.20;;;;;;5002579;28;93985;-43
2023/07/09 07:43:25;;;;;;;;;;;20.50;68.20;;;;;;5005722;28;93921;-44
2023/07/09 07:45:51;;;;;;;;;;;20.40;68.20;;;;;;5007292;28;94209;-43
2023/07/09 07:48:16;;;;;;;;;;;20.50;68.20;;;;;;5009356;28;93234;-43
2023/07/09 07:50:42;;;;;;;;;;;20.40;68.20;;;;;;5005384;28;92295;-44
2023/07/09 07:53:08;;;;;;;;;;;20.40;68.20;;;;;;5013542;28;92472;-43
2023/07/09 07:55:33;;;;;;;;;;;20.50;68.30;;;;;;5008866;28;92150;-44
2023/07/09 07:58:02;;;;;;;;;;;20.50;68.20;;;;;;5007727;28;92410;-43
2023/07/09 08:00:28;;;;;;;;;;;20.50;68.20;;;;;;5006899;28;94763;-48
2023/07/09 08:02:53;;;;;;;;;;;20.50;69.10;;;;;;5010604;28;92140;-45
2023/07/09 08:05:19;;;;;;;;;;;20.60;69.40;;;;;;5002668;28;93177;-44
2023/07/09 08:07:45;;;;;;;;;;;20.60;69.30;;;;;;5007962;28;92088;-46
2023/07/09 08:10:11;;;;;;;;;;;20.50;69.60;;;;;;5010176;28;92121;-46
2023/07/09 08:12:37;;;;;;;;;;;20.60;69.40;;;;;;5007485;28;93881;-45
2023/07/09 08:15:03;;;;;;;;;;;20.70;68.10;;;;;;5012817;28;93056;-50
2023/07/09 08:17:28;;;;;;;;;;;20.60;67.10;;;;;;5006746;28;93959;-50
2023/07/09 08:19:54;;;;;;;;;;;20.60;66.10;;;;;;5004274;28;95851;-44
2023/07/09 08:22:20;;;;;;;;;;;20.70;66.80;;;;;;5011134;28;91395;-44
2023/07/09 08:24:46;;;;;;;;;;;20.70;66.00;;;;;;5007145;28;93041;-42
2023/07/09 08:27:11;;;;;;;;;;;20.70;65.60;;;;;;5009042;28;93455;-42
2023/07/09 08:29:37;;;;;;;;;;;20.80;65.80;;;;;;5009093;28;93123;-46
2023/07/09 08:32:03;;;;;;;;;;;20.80;66.10;;;;;;5007636;28;93356;-45
2023/07/09 08:34:29;;;;;;;;;;;20.90;66.30;;;;;;5001291;28;94994;-46
2023/07/09 08:36:54;;;;;;;;;;;20.80;66.40;;;;;;5013124;28;92164;-49
2023/07/09 08:39:20;;;;;;;;;;;20.80;66.40;;;;;;5008575;28;93173;-45
2023/07/09 08:41:48;;;;;;;;;;;20.90;66.50;;;;;;5007421;28;92108;-47
2023/07/09 08:44:32;;;;;;;;;;;20.80;66.40;;;;;;5010372;28;92891;-46
2023/07/09 08:47:00;;;;;;;;;;;20.80;66.50;;;;;;5010575;28;92298;-47
2023/07/09 08:49:38;;;;;;;;;;;20.80;66.60;;;;;;5003806;28;92193;-43
2023/07/09 08:52:10;;;;;;;;;;;20.80;66.70;;;;;;5009657;28;92688;-41
2023/07/09 08:54:36;;;;;;;;;;;20.80;66.80;;;;;;5007278;28;92967;-42
2023/07/09 08:57:24;;;;;;;;;;;20.90;66.90;;;;;;5011129;28;92095;-42
2023/07/09 08:59:53;;;;;;;;;;;20.80;66.80;;;;;;5008522;28;92780;-41
2023/07/09 09:02:39;;;;;;;;;;;20.80;66.90;;;;;;5006830;28;92112;-42
2023/07/09 09:05:05;;;;;;;;;;;20.80;66.90;;;;;;5005556;28;94058;-42
2023/07/09 09:07:33;;;;;;;;;;;20.80;66.90;;;;;;5006194;28;94787;-42
2023/07/09 09:10:01;;;;;;;;;;;20.90;67.00;;;;;;5007897;28;92191;-43
2023/07/09 09:12:33;;;;;;;;;;;20.90;67.10;;;;;;5008760;28;92911;-41
2023/07/09 09:15:01;;;;;;;;;;;20.90;67.10;;;;;;5002689;28;92610;-43
2023/07/09 09:17:29;;;;;;;;;;;20.90;67.20;;;;;;5008398;28;92112;-41
2023/07/09 09:19:54;;;;;;;;;;;20.90;67.20;;;;;;5005574;28;93966;-43
2023/07/09 09:22:25;;;;;;;;;;;20.90;67.20;;;;;;5010092;28;92105;-42
2023/07/09 09:24:55;;;;;;;;;;;20.90;67.30;;;;;;5008054;28;93865;-43
2023/07/09 09:27:20;;;;;;;;;;;20.90;67.90;;;;;;5006642;28;93263;-43
2023/07/09 09:29:46;;;;;;;;;;;20.90;67.30;;;;;;5009954;28;92708;-41
2023/07/09 09:32:23;;;;;;;;;;;20.90;67.90;;;;;;5007307;28;92344;-45
2023/07/09 09:34:48;;;;;;;;;;;20.90;67.30;;;;;;5005980;28;93013;-41
2023/07/09 09:37:23;;;;;;;;;;;20.90;67.30;;;;;;5009451;28;91488;-41
2023/07/09 09:39:48;;;;;;;;;;;20.90;67.30;;;;;;5011753;28;92123;-42
2023/07/09 09:42:14;;;;;;;;;;;20.90;67.30;;;;;;5015238;28;93279;-42
2023/07/09 09:44:43;;;;;;;;;;;21.00;67.40;;;;;;5009381;28;93094;-42
2023/07/09 09:47:10;;;;;;;;;;;21.00;67.40;;;;;;5011043;28;95844;-42
2023/07/09 09:49:42;;;;;;;;;;;21.00;67.30;;;;;;5011698;28;92666;-41
2023/07/09 09:52:15;;;;;;;;;;;21.00;68.00;;;;;;5008267;28;92409;-42
2023/07/09 09:54:44;;;;;;;;;;;21.00;67.40;;;;;;5010892;28;92281;-42
2023/07/09 09:57:16;;;;;;;;;;;21.00;67.40;;;;;;5009790;28;92176;-43
2023/07/09 09:59:41;;;;;;;;;;;21.00;67.40;;;;;;5011992;28;93769;-44
2023/07/09 10:02:17;;;;;;;;;;;21.10;67.50;;;;;;5011686;28;92367;-44
2023/07/09 10:04:44;;;;;;;;;;;21.10;66.40;;;;;;5009411;28;92261;-46
2023/07/09 10:07:14;;;;;;;;;;;21.00;64.50;;;;;;5006810;28;94412;-47
2023/07/09 10:09:49;;;;;;;;;;;21.00;65.50;;;;;;5011669;28;93250;-44
2023/07/09 10:12:30;;;;;;;;;;;21.00;65.20;;;;;;4989315;28;96686;-44
2023/07/09 10:15:00;;;;;;;;;;;21.10;67.20;;;;;;5005505;28;93750;-47
2023/07/09 10:17:28;;;;;;;;;;;21.10;65.60;;;;;;5011304;28;92164;-42
2023/07/09 10:19:54;;;;;;;;;;;21.10;62.90;;;;;;5011807;28;92556;-44
2023/07/09 10:22:28;;;;;;;;;;;21.10;64.30;;;;;;5007516;28;93269;-43
2023/07/09 10:25:09;;;;;;;;;;;21.10;64.90;;;;;;5011117;28;92145;-42
2023/07/09 10:28:00;;;;;;;;;;;21.10;65.20;;;;;;5010761;28;92387;-44
2023/07/09 10:30:32;;;;;;;;;;;21.20;64.60;;;;;;5007959;28;92098;-45
2023/07/09 10:33:11;;;;;;;;;;;21.30;65.30;;;;;;5009359;28;92791;-45
2023/07/09 10:35:47;;;;;;;;;;;21.40;65.10;;;;;;5008916;28;94170;-42
2023/07/09 10:38:17;;;;;;;;;;;21.40;65.30;;;;;;5008909;28;92361;-46
2023/07/09 10:40:46;;;;;;;;;;;21.40;65.30;;;;;;5010139;28;92377;-46
2023/07/09 10:43:16;;;;;;;;;;;21.40;65.40;;;;;;5011565;28;92757;-45
2023/07/09 10:45:44;;;;;;;;;;;21.40;65.50;;;;;;5007049;28;92084;-44
2023/07/09 10:48:14;;;;;;;;;;;21.40;65.50;;;;;;5009789;28;92277;-45
2023/07/09 10:50:45;;;;;;;;;;;21.40;65.50;;;;;;5010546;28;93734;-42
2023/07/09 10:53:14;;;;;;;;;;;21.50;65.60;;;;;;5010292;28;92510;-44
2023/07/09 10:55:43;;;;;;;;;;;21.50;65.70;;;;;;5008848;28;93224;-45
2023/07/09 10:58:19;;;;;;;;;;;21.50;65.70;;;;;;5011625;28;92364;-48
2023/07/09 11:00:44;;;;;;;;;;;21.50;65.70;;;;;;5010879;28;93067;-43
2023/07/09 11:03:15;;;;;;;;;;;21.50;65.70;;;;;;5008345;28;93172;-49
2023/07/09 11:05:41;;;;;;;;;;;21.50;65.70;;;;;;5005715;28;92868;-47
2023/07/09 11:08:15;;;;;;;;;;;21.60;65.80;;;;;;5009627;28;92832;-43
2023/07/09 11:10:43;;;;;;;;;;;21.60;65.80;;;;;;5011360;28;93004;-45
2023/07/09 11:13:25;;;;;;;;;;;21.60;65.80;;;;;;5012499;28;92020;-48
2023/07/09 11:15:54;;;;;;;;;;;21.60;65.90;;;;;;5004982;28;93009;-46
2023/07/09 11:18:21;;;;;;;;;;;21.70;65.90;;;;;;5010690;28;91388;-45
2023/07/09 11:20:54;;;;;;;;;;;21.60;65.90;;;;;;5005372;28;92306;-45
2023/07/09 11:23:24;;;;;;;;;;;21.60;65.90;;;;;;5003972;28;93424;-45
2023/07/09 11:26:09;;;;;;;;;;;21.60;66.00;;;;;;5009599;28;93094;-45
2023/07/09 11:28:36;;;;;;;;;;;21.60;65.90;;;;;;5008357;28;93471;-48
2023/07/09 11:31:06;;;;;;;;;;;21.70;66.00;;;;;;5006688;28;96000;-49
2023/07/09 11:33:31;;;;;;;;;;;21.70;66.00;;;;;;5004159;28;92274;-45
2023/07/09 11:36:07;;;;;;;;;;;21.70;65.90;;;;;;5009015;28;93202;-46
2023/07/09 11:38:44;;;;;;;;;;;21.70;65.90;;;;;;5007462;28;92180;-43
2023/07/09 11:41:34;;;;;;;;;;;21.70;65.90;;;;;;5009082;28;92112;-45
2023/07/09 11:44:08;;;;;;;;;;;21.80;65.90;;;;;;5008064;28;93887;-44
2023/07/09 11:46:36;;;;;;;;;;;21.80;66.00;;;;;;5004872;28;92193;-47
2023/07/09 11:49:02;;;;;;;;;;;21.80;65.90;;;;;;5009254;28;92722;-43
2023/07/09 11:51:49;;;;;;;;;;;21.80;65.90;;;;;;5007819;28;95648;-48
2023/07/09 11:54:15;;;;;;;;;;;21.80;66.00;;;;;;5004921;28;92571;-48
2023/07/09 11:56:40;;;;;;;;;;;21.90;67.90;;;;;;5013532;28;92527;-48
2023/07/09 11:59:10;;;;;;;;;;;22.00;68.30;;;;;;5007389;28;92554;-46
2023/07/09 12:01:39;;;;;;;;;;;22.10;67.80;;;;;;5008927;28;92496;-51
2023/07/09 12:04:05;;;;;;;;;;;22.10;68.20;;;;;;5010122;28;92644;-51
2023/07/09 12:06:32;;;;;;;;;;;22.20;68.20;;;;;;5008742;28;92706;-43
2023/07/09 12:08:58;;;;;;;;;;;22.20;68.30;;;;;;5005108;28;92090;-50
2023/07/09 12:11:23;;;;;;;;;;;22.30;68.30;;;;;;5008445;28;93049;-50
2023/07/09 12:13:49;;;;;;;;;;;22.30;68.20;;;;;;5010248;28;92225;-50
2023/07/09 12:16:35;;;;;;;;;;;22.40;68.30;;;;;;5007103;28;93484;-43
2023/07/09 12:19:00;;;;;;;;;;;22.40;68.30;;;;;;5009741;28;93218;-46
2023/07/09 12:21:26;;;;;;;;;;;22.50;68.40;;;;;;5007678;28;93408;-46
2023/07/09 12:23:53;;;;;;;;;;;22.50;68.00;;;;;;5006629;28;92850;-47
2023/07/09 12:26:19;;;;;;;;;;;22.60;68.70;;;;;;5008578;28;92146;-48
2023/07/09 12:28:52;;;;;;;;;;;22.60;68.00;;;;;;5010377;28;92127;-49
2023/07/09 12:31:18;;;;;;;;;;;22.60;67.50;;;;;;5007801;28;94235;-52
2023/07/09 12:33:48;;;;;;;;;;;22.70;67.60;;;;;;5008831;28;91793;-48
2023/07/09 12:36:14;;;;;;;;;;;22.70;67.70;;;;;;5008476;28;92025;-48
2023/07/09 12:38:43;;;;;;;;;;;22.70;68.20;;;;;;5005737;28;93071;-44
2023/07/09 12:41:17;;;;;;;;;;;22.70;67.80;;;;;;5011112;28;93244;-45
2023/07/09 12:43:43;;;;;;;;;;;22.70;68.00;;;;;;5003504;28;93111;-43
2023/07/09 12:46:08;;;;;;;;;;;22.70;67.70;;;;;;5008052;28;92099;-45
2023/07/09 12:48:34;;;;;;;;;;;22.70;67.50;;;;;;5008637;28;92946;-45
2023/07/09 12:50:59;;;;;;;;;;;22.70;67.40;;;;;;5007387;28;93352;-45
2023/07/09 12:53:26;;;;;;;;;;;22.70;67.30;;;;;;5006255;28;92278;-45
2023/07/09 12:55:54;;;;;;;;;;;22.70;67.30;;;;;;5007842;28;92518;-43
2023/07/09 12:58:22;;;;;;;;;;;22.70;67.20;;;;;;5008328;28;92424;-44
2023/07/09 13:00:51;;;;;;;;;;;22.70;67.20;;;;;;5009587;28;92200;-45
2023/07/09 13:03:18;;;;;;;;;;;22.70;67.20;;;;;;5005114;28;95782;-43
2023/07/09 13:05:52;;;;;;;;;;;22.70;67.20;;;;;;5007878;28;93457;-45
2023/07/09 13:08:18;;;;;;;;;;;22.70;67.00;;;;;;5003349;28;94963;-45
2023/07/09 13:10:44;;;;;;;;;;;22.70;67.10;;;;;;5008337;28;92909;-45
2023/07/09 13:13:13;;;;;;;;;;;22.70;67.00;;;;;;5006342;28;92088;-45
2023/07/09 13:15:40;;;;;;;;;;;22.70;66.90;;;;;;5007039;28;92431;-47
2023/07/09 13:18:07;;;;;;;;;;;22.70;66.90;;;;;;5009225;28;93664;-42
2023/07/09 13:20:36;;;;;;;;;;;22.70;66.90;;;;;;5007300;28;92362;-42
2023/07/09 13:23:08;;;;;;;;;;;22.70;66.90;;;;;;5008986;28;93998;-41
2023/07/09 13:25:34;;;;;;;;;;;22.80;66.90;;;;;;5005682;28;92299;-42
2023/07/09 13:27:59;;;;;;;;;;;22.80;66.60;;;;;;5008687;28;92885;-43
2023/07/09 13:30:25;;;;;;;;;;;22.80;66.60;;;;;;5007218;28;94215;-42
2023/07/09 13:32:51;;;;;;;;;;;22.80;66.50;;;;;;5007062;28;92212;-42
2023/07/09 13:35:18;;;;;;;;;;;22.80;66.60;;;;;;5009856;28;92431;-42
2023/07/09 13:37:44;;;;;;;;;;;22.80;66.50;;;;;;5001448;28;95152;-43
2023/07/09 13:40:11;;;;;;;;;;;22.90;66.50;;;;;;5006109;28;92112;-42
2023/07/09 13:42:36;;;;;;;;;;;22.90;66.60;;;;;;5009164;28;92023;-43
2023/07/09 13:45:02;;;;;;;;;;;22.90;66.40;;;;;;5009049;28;93067;-42
2023/07/09 13:47:28;;;;;;;;;;;23.00;66.40;;;;;;5009444;28;92623;-42
2023/07/09 13:49:53;;;;;;;;;;;23.00;66.30;;;;;;5007169;28;94314;-42
2023/07/09 13:52:20;;;;;;;;;;;23.00;66.20;;;;;;5007111;28;92459;-42
2023/07/09 13:54:47;;;;;;;;;;;23.00;66.20;;;;;;5005447;28;93069;-45
2023/07/09 13:57:17;;;;;;;;;;;23.10;66.20;;;;;;5008215;28;94625;-42
2023/07/09 13:59:43;;;;;;;;;;;23.10;66.20;;;;;;5008183;28;92147;-42
2023/07/09 14:02:32;;;;;;;;;;;23.10;66.10;;;;;;5007197;28;92380;-42
2023/07/09 14:04:58;;;;;;;;;;;23.20;66.10;;;;;;5007657;28;94292;-42
2023/07/09 14:07:26;;;;;;;;;;;23.20;65.90;;;;;;5007449;28;92274;-42
2023/07/09 14:09:52;;;;;;;;;;;23.20;66.20;;;;;;5004186;28;93086;-43
2023/07/09 14:12:17;;;;;;;;;;;23.30;66.20;;;;;;5008909;28;91420;-42
2023/07/09 14:14:44;;;;;;;;;;;23.30;66.00;;;;;;5006886;28;92538;-42
2023/07/09 14:17:12;;;;;;;;;;;23.30;66.60;;;;;;5000939;28;92889;-42
2023/07/09 14:19:37;;;;;;;;;;;23.30;65.90;;;;;;5007613;28;93134;-42